Oxnard Airport Oxnard US
ICAO: KOXR
IATA: OXR
Category: Medium
Scheduled Services: No

Elevation: 45 ft
TransAlt. 18000 ft.

Airport Communications:
PT MUGU APP/DEP:124.7
ATIS:118.05
CTAF:134.95
GND:121.9
TWR:134.95

KOXR Zoom In..

Runways:

(A) RW 07 length 5953 ft width 100 ft
---- / hdg 76

(B) RW 25 length 5953 ft width 100 ft
ILS 108.70 / hdg 256

Location; KOXR
Day. 17 / Time. 06.51 Zulu
* Altimeter: 29.97
* Temperature: 18° c. 64.4°f.
* Wind from: 270° Speed 05 kn.
Dewpoint: 16° c.
Visibility: 10 Statute Miles.
Clouds: Clear (automated report).

KOXR 170651Z AUTO 27005KT 10SM CLR 18/16 A2997 RMK AO2 SLP146 T01830161


Wind From 270°
Speed 05 kn.

 
 
jpsmedia.com for Web Design worldairports.se 2018   terms of use